Time;durP1;ratioP1;P1;durP2;ratioP2;P2;SDS_P1;SDS_P2;PMS_P1;PMS_P2;Temp;Humidity;BMP_temperature;BMP_pressure;BME280_temperature;BME280_humidity;BME280_pressure;Samples;Min_cycle;Max_cycle;Signal;HPM_P1;HPM_P2
2023/04/09 00:01:55;;;;;;;34.25;23.80;;;12.30;99.90;;;;;;5046380;28;20032;-78
2023/04/09 00:04:22;;;;;;;33.88;23.35;;;12.30;99.90;;;;;;5061409;28;20035;-79
2023/04/09 00:06:48;;;;;;;31.95;22.02;;;12.40;99.90;;;;;;5078871;28;20028;-79
2023/04/09 00:09:14;;;;;;;34.78;23.92;;;12.40;99.90;;;;;;5078461;28;20103;-78
2023/04/09 00:11:40;;;;;;;31.45;22.45;;;12.50;99.90;;;;;;5078019;28;20429;-78
2023/04/09 00:14:06;;;;;;;33.42;23.23;;;12.50;99.90;;;;;;5061379;28;20123;-78
2023/04/09 00:16:31;;;;;;;36.33;23.33;;;12.50;99.90;;;;;;5078419;28;20060;-78
2023/04/09 00:18:57;;;;;;;34.22;21.90;;;12.50;99.90;;;;;;5078031;28;20032;-78
2023/04/09 00:21:23;;;;;;;34.08;23.23;;;12.50;99.90;;;;;;5061190;28;20046;-78
2023/04/09 00:23:48;;;;;;;33.33;22.75;;;12.40;99.90;;;;;;5077919;28;20101;-78
2023/04/09 00:26:14;;;;;;;37.17;24.25;;;12.40;99.90;;;;;;5061233;28;20476;-79
2023/04/09 00:28:40;;;;;;;37.45;24.60;;;12.40;99.90;;;;;;5095824;28;20090;-78
2023/04/09 00:31:05;;;;;;;35.97;24.17;;;12.40;99.90;;;;;;5060768;28;20415;-79
2023/04/09 00:33:31;;;;;;;35.38;23.95;;;12.40;99.90;;;;;;5078044;28;20036;-78
2023/04/09 00:35:57;;;;;;;38.53;24.73;;;12.30;99.90;;;;;;5061739;28;20349;-79
2023/04/09 00:38:22;;;;;;;34.83;23.85;;;12.30;99.90;;;;;;5077474;28;20024;-78
2023/04/09 00:40:49;;;;;;;35.28;22.88;;;12.30;99.90;;;;;;5077461;28;20130;-79
2023/04/09 00:43:18;;;;;;;33.60;23.45;;;12.30;99.90;;;;;;5077428;28;20035;-78
2023/04/09 00:45:44;;;;;;;34.75;23.85;;;12.40;99.90;;;;;;5061027;28;20052;-78
2023/04/09 00:48:12;;;;;;;38.20;25.08;;;12.50;99.90;;;;;;5077353;28;20029;-78
2023/04/09 00:50:37;;;;;;;36.45;25.73;;;12.40;99.90;;;;;;5077658;28;20043;-78
2023/04/09 00:53:04;;;;;;;38.72;24.88;;;12.30;99.90;;;;;;5077376;28;20028;-78
2023/04/09 00:55:30;;;;;;;33.28;23.50;;;12.20;99.90;;;;;;5095264;28;20461;-78
2023/04/09 00:57:56;;;;;;;37.15;23.95;;;12.20;99.90;;;;;;5095262;28;20027;-78
2023/04/09 01:00:22;;;;;;;39.47;26.30;;;12.30;99.90;;;;;;5060490;28;20032;-78
2023/04/09 01:02:50;;;;;;;33.53;22.58;;;12.30;99.90;;;;;;5077444;28;20036;-78
2023/04/09 01:05:16;;;;;;;36.30;24.83;;;12.30;99.90;;;;;;5077466;28;20040;-78
2023/04/09 01:08:00;;;;;;;33.25;23.58;;;12.30;99.90;;;;;;5043767;28;20054;-78
2023/04/09 01:10:49;;;;;;;38.75;25.73;;;12.30;99.90;;;;;;5095420;28;20103;-78
2023/04/09 01:13:34;;;;;;;38.88;24.83;;;12.20;99.90;;;;;;5095028;28;20052;-78
2023/04/09 01:16:02;;;;;;;39.08;25.50;;;12.20;99.90;;;;;;5095027;28;20028;-78
2023/04/09 01:18:34;;;;;;;37.30;25.42;;;12.20;99.90;;;;;;5060057;28;20035;-78
2023/04/09 01:21:02;;;;;;;40.72;26.15;;;12.20;99.90;;;;;;5095117;28;20028;-78
2023/04/09 01:24:05;;;;;;;37.80;25.45;;;12.20;99.90;;;;;;5094846;28;20103;-78
2023/04/09 01:26:42;;;;;;;;;;;12.20;99.90;;;;;;5095204;28;20024;-78
2023/04/09 01:29:09;;;;;;;37.50;23.55;;;12.10;99.90;;;;;;5076859;28;19904;-78
2023/04/09 01:31:37;;;;;;;38.20;25.75;;;12.10;99.90;;;;;;5076741;28;20050;-78
2023/04/09 01:34:05;;;;;;;36.50;26.40;;;12.20;99.90;;;;;;5060564;28;20032;-78
2023/04/09 01:36:32;;;;;;;37.80;24.92;;;12.10;99.90;;;;;;5094339;28;20491;-78
2023/04/09 01:39:00;;;;;;;34.90;23.42;;;12.10;99.90;;;;;;5094523;28;20024;-78
2023/04/09 01:41:27;;;;;;;34.25;23.20;;;12.20;99.90;;;;;;5076237;28;20036;-78
2023/04/09 01:43:52;;;;;;;32.75;23.80;;;12.20;99.90;;;;;;5076502;28;20032;-78
2023/04/09 01:46:19;;;;;;;33.47;22.85;;;12.20;99.90;;;;;;5059496;28;20135;-78
2023/04/09 01:48:46;;;;;;;37.47;24.48;;;12.20;99.90;;;;;;5094100;28;20099;-78
2023/04/09 01:51:13;;;;;;;36.63;24.60;;;12.20;99.90;;;;;;5076084;28;20036;-78
2023/04/09 01:53:39;;;;;;;34.90;24.88;;;12.20;99.90;;;;;;5094271;28;20027;-78
2023/04/09 01:56:06;;;;;;;36.22;25.08;;;12.20;99.90;;;;;;5093890;28;20529;-79
2023/04/09 01:58:35;;;;;;;34.25;23.33;;;12.10;99.90;;;;;;5094200;28;20054;-78
2023/04/09 02:01:19;;;;;;;35.60;23.67;;;12.10;99.90;;;;;;5094081;28;20035;-79
2023/04/09 02:03:55;;;;;;;35.45;25.17;;;12.10;99.90;;;;;;5076582;28;20093;-78
2023/04/09 02:06:27;;;;;;;35.40;24.17;;;12.10;99.90;;;;;;5075911;28;20035;-78
2023/04/09 02:08:53;;;;;;;33.38;23.85;;;12.00;99.90;;;;;;5094016;28;20028;-78
2023/04/09 02:11:22;;;;;;;34.08;24.30;;;12.00;99.90;;;;;;5094025;28;20487;-78
2023/04/09 02:13:49;;;;;;;36.78;24.80;;;12.10;99.90;;;;;;5093646;28;20464;-78
2023/04/09 02:16:16;;;;;;;34.65;23.77;;;12.10;99.90;;;;;;5093990;28;20024;-79
2023/04/09 02:18:41;;;;;;;32.85;23.50;;;12.10;99.90;;;;;;5059131;28;20115;-79
2023/04/09 02:21:07;;;;;;;35.20;23.38;;;12.10;99.90;;;;;;5093792;28;20127;-79
2023/04/09 02:23:33;;;;;;;34.42;23.67;;;12.10;99.90;;;;;;5093834;28;20032;-79
2023/04/09 02:26:00;;;;;;;33.67;24.10;;;12.00;99.90;;;;;;5059307;28;20034;-78
2023/04/09 02:28:25;;;;;;;40.20;26.30;;;12.10;99.90;;;;;;5059193;28;20115;-78
2023/04/09 02:30:51;;;;;;;35.33;23.73;;;12.10;99.90;;;;;;5059395;28;20512;-78
2023/04/09 02:33:17;;;;;;;32.60;23.30;;;12.00;99.90;;;;;;5058646;28;20028;-79
2023/04/09 02:35:42;;;;;;;34.15;24.08;;;12.00;99.90;;;;;;5093487;28;20020;-78
2023/04/09 02:38:13;;;;;;;34.03;23.00;;;12.10;99.90;;;;;;5075701;28;20028;-79
2023/04/09 02:40:41;;;;;;;30.60;22.00;;;12.00;99.90;;;;;;5093916;28;20024;-78
2023/04/09 02:43:08;;;;;;;33.50;22.73;;;12.10;99.90;;;;;;5076029;28;20028;-78
2023/04/09 02:45:35;;;;;;;32.22;22.70;;;12.10;99.90;;;;;;5075291;28;20036;-78
2023/04/09 02:48:00;;;;;;;32.13;22.52;;;12.10;99.90;;;;;;5093633;28;20044;-78
2023/04/09 02:50:26;;;;;;;29.70;21.60;;;12.10;99.90;;;;;;5075505;28;20065;-79
2023/04/09 02:52:52;;;;;;;31.33;23.02;;;12.10;99.90;;;;;;5058490;28;20119;-78
2023/04/09 02:55:18;;;;;;;32.22;22.30;;;12.10;99.90;;;;;;5076597;28;20107;-79
2023/04/09 02:57:44;;;;;;;34.58;22.95;;;12.10;99.90;;;;;;5098213;28;20035;-78
2023/04/09 03:00:11;;;;;;;32.97;23.38;;;12.00;99.90;;;;;;5097573;28;20085;-78
2023/04/09 03:02:37;;;;;;;35.40;23.52;;;12.00;99.90;;;;;;5079241;28;20028;-78
2023/04/09 03:05:03;;;;;;;32.83;22.98;;;11.90;99.90;;;;;;5097715;28;20078;-78
2023/04/09 03:07:28;;;;;;;34.15;24.70;;;11.90;99.90;;;;;;5079201;28;20036;-78
2023/04/09 03:09:54;;;;;;;37.70;23.60;;;11.90;99.90;;;;;;5079055;28;20028;-78
2023/04/09 03:12:19;;;;;;;33.75;23.77;;;11.90;99.90;;;;;;5045920;28;20036;-78
2023/04/09 03:14:45;;;;;;;33.15;22.60;;;11.90;99.90;;;;;;5079580;28;20073;-78
2023/04/09 03:17:11;;;;;;;33.70;22.48;;;11.90;99.90;;;;;;5062954;28;20061;-78
2023/04/09 03:19:36;;;;;;;34.33;24.23;;;12.00;99.90;;;;;;5079188;28;20032;-79
2023/04/09 03:22:02;;;;;;;33.90;22.67;;;12.00;99.90;;;;;;5097131;28;20484;-78
2023/04/09 03:24:27;;;;;;;32.70;23.10;;;12.00;99.90;;;;;;5062712;28;20032;-78
2023/04/09 03:26:53;;;;;;;32.70;23.35;;;11.90;99.90;;;;;;5062708;28;20039;-78
2023/04/09 03:29:19;;;;;;;36.10;23.92;;;11.90;99.90;;;;;;5078769;28;20056;-78
2023/04/09 03:31:44;;;;;;;31.98;23.70;;;11.90;99.90;;;;;;5062649;28;20446;-79
2023/04/09 03:34:10;;;;;;;36.38;24.58;;;11.90;99.90;;;;;;5061856;28;20115;-79
2023/04/09 03:36:35;;;;;;;33.47;22.23;;;11.80;99.90;;;;;;5062124;28;20080;-80
2023/04/09 03:39:01;;;;;;;30.52;21.83;;;11.90;99.90;;;;;;5079487;28;20463;-79
2023/04/09 03:41:27;;;;;;;36.20;25.02;;;12.00;99.90;;;;;;5078971;28;20475;-79
2023/04/09 03:43:52;;;;;;;35.00;24.90;;;12.00;99.90;;;;;;5062768;28;20064;-78
2023/04/09 03:46:18;;;;;;;38.45;25.50;;;12.10;99.90;;;;;;5078369;28;20561;-79
2023/04/09 03:48:44;;;;;;;33.13;24.50;;;12.10;99.90;;;;;;5078563;28;20024;-79
2023/04/09 03:51:12;;;;;;;35.38;24.02;;;12.00;99.90;;;;;;5078471;28;20050;-79
2023/04/09 03:53:38;;;;;;;32.83;22.77;;;11.90;99.90;;;;;;5078322;28;20060;-79
2023/04/09 03:56:04;;;;;;;34.53;23.70;;;11.70;99.90;;;;;;5078638;28;20055;-79
2023/04/09 03:58:29;;;;;;;34.65;23.67;;;11.70;99.90;;;;;;5061676;28;20475;-79
2023/04/09 04:00:55;;;;;;;31.65;22.45;;;11.70;99.90;;;;;;5061432;28;20031;-78
2023/04/09 04:03:21;;;;;;;36.30;24.75;;;11.60;99.90;;;;;;5096409;28;20028;-79
2023/04/09 04:05:46;;;;;;;36.63;23.20;;;11.60;99.90;;;;;;5061047;28;20038;-79
2023/04/09 04:08:12;;;;;;;30.75;22.20;;;11.50;99.90;;;;;;5078537;28;20032;-79
2023/04/09 04:10:37;;;;;;;33.78;22.17;;;11.50;99.90;;;;;;5078500;28;20035;-79
2023/04/09 04:13:05;;;;;;;33.28;23.45;;;11.50;99.90;;;;;;5077921;28;20090;-78
2023/04/09 04:15:31;;;;;;;32.47;22.45;;;11.50;99.90;;;;;;5077940;28;20028;-79
2023/04/09 04:17:56;;;;;;;32.97;23.00;;;11.50;99.90;;;;;;5078528;28;20032;-79
2023/04/09 04:20:22;;;;;;;32.35;22.27;;;11.40;99.90;;;;;;5061272;28;20464;-78
2023/04/09 04:22:47;;;;;;;31.75;22.80;;;11.40;99.90;;;;;;5078356;28;20058;-79
2023/04/09 04:25:13;;;;;;;34.33;23.33;;;11.40;99.90;;;;;;5095867;28;20032;-79
2023/04/09 04:27:42;;;;;;;36.03;23.88;;;11.30;99.90;;;;;;5077779;28;20028;-79
2023/04/09 04:30:08;;;;;;;34.15;23.10;;;11.20;99.90;;;;;;5044594;28;20189;-78
2023/04/09 04:32:34;;;;;;;34.63;23.48;;;11.20;99.90;;;;;;5061874;28;20468;-78
2023/04/09 04:34:59;;;;;;;32.75;23.02;;;11.20;99.90;;;;;;5077575;28;20380;-79
2023/04/09 04:37:25;;;;;;;36.47;24.48;;;11.10;99.90;;;;;;5061329;28;20033;-78
2023/04/09 04:39:51;;;;;;;34.28;22.90;;;11.00;99.90;;;;;;5078074;28;20034;-78
2023/04/09 04:42:16;;;;;;;36.05;24.23;;;10.90;99.90;;;;;;5077349;28;20062;-78
2023/04/09 04:44:43;;;;;;;34.85;23.17;;;10.90;99.90;;;;;;5077878;28;20093;-78
2023/04/09 04:47:09;;;;;;;36.20;24.38;;;10.90;99.90;;;;;;5096121;28;20074;-78
2023/04/09 04:49:34;;;;;;;36.05;23.48;;;10.80;99.90;;;;;;5077318;28;20024;-78
2023/04/09 04:52:00;;;;;;;36.75;23.55;;;10.80;99.90;;;;;;5077257;28;20093;-77
2023/04/09 04:54:26;;;;;;;34.05;22.23;;;10.80;99.90;;;;;;5077625;28;20486;-78
2023/04/09 04:56:51;;;;;;;36.03;23.98;;;10.90;99.90;;;;;;5060450;28;20534;-78
2023/04/09 04:59:17;;;;;;;36.67;23.80;;;11.10;99.90;;;;;;5060467;28;20024;-78
2023/04/09 05:01:42;;;;;;;33.05;22.88;;;11.10;99.90;;;;;;5060109;28;20071;-78
2023/04/09 05:04:08;;;;;;;35.45;23.10;;;11.10;99.90;;;;;;5060428;28;20032;-78
2023/04/09 05:06:34;;;;;;;32.65;21.85;;;11.00;99.90;;;;;;5076600;28;20487;-78
2023/04/09 05:09:00;;;;;;;33.38;23.27;;;11.00;99.90;;;;;;5094755;28;20115;-78
2023/04/09 05:11:26;;;;;;;33.55;22.15;;;10.90;99.90;;;;;;5094994;28;20050;-78
2023/04/09 05:13:52;;;;;;;35.30;22.83;;;10.90;99.90;;;;;;5094945;28;20479;-78
2023/04/09 05:16:21;;;;;;;34.03;22.52;;;10.90;99.90;;;;;;5043544;28;20035;-78
2023/04/09 05:18:46;;;;;;;34.00;22.33;;;10.80;99.90;;;;;;5076100;28;20032;-78
2023/04/09 05:21:12;;;;;;;33.22;22.35;;;10.80;99.90;;;;;;5094818;28;20518;-78
2023/04/09 05:23:38;;;;;;;33.10;21.52;;;10.70;99.90;;;;;;5094840;28;20081;-79
2023/04/09 05:26:04;;;;;;;32.95;21.40;;;10.70;99.90;;;;;;5059879;28;20032;-78
2023/04/09 05:28:29;;;;;;;29.10;20.13;;;10.70;99.90;;;;;;5077414;28;20030;-77
2023/04/09 05:30:55;;;;;;;30.92;20.33;;;10.70;99.90;;;;;;5060394;28;20032;-78
2023/04/09 05:33:21;;;;;;;30.33;19.60;;;10.80;99.90;;;;;;5059813;28;20028;-78
2023/04/09 05:35:46;;;;;;;32.75;20.63;;;10.80;99.90;;;;;;5076744;28;20078;-78
2023/04/09 05:38:15;;;;;;;31.95;21.27;;;10.70;99.90;;;;;;5060122;28;20036;-78
2023/04/09 05:40:43;;;;;;;31.95;20.98;;;10.60;99.90;;;;;;5076833;28;20515;-78
2023/04/09 05:43:09;;;;;;;32.80;20.38;;;10.50;99.90;;;;;;5094460;28;20028;-78
2023/04/09 05:45:34;;;;;;;29.95;20.38;;;10.50;99.90;;;;;;5094689;28;20090;-78
2023/04/09 05:48:00;;;;;;;31.98;20.15;;;10.60;99.90;;;;;;5077017;28;20039;-78
2023/04/09 05:50:26;;;;;;;35.22;22.63;;;10.60;99.90;;;;;;5042837;28;20387;-78
2023/04/09 05:52:51;;;;;;;31.58;21.15;;;10.70;99.90;;;;;;5076154;28;20124;-78
2023/04/09 05:55:17;;;;;;;29.73;18.95;;;10.60;99.90;;;;;;5076232;28;20058;-78
2023/04/09 05:57:44;;;;;;;34.00;21.42;;;10.60;99.90;;;;;;5076231;28;20039;-78
2023/04/09 06:00:10;;;;;;;31.77;21.40;;;10.60;99.90;;;;;;5043117;28;20032;-78
2023/04/09 06:02:36;;;;;;;28.98;19.88;;;10.60;99.90;;;;;;5093785;28;20067;-78
2023/04/09 06:05:02;;;;;;;29.92;20.58;;;10.60;99.90;;;;;;5059911;28;20028;-78
2023/04/09 06:07:27;;;;;;;33.38;21.15;;;10.60;99.90;;;;;;5059397;28;20035;-78
2023/04/09 06:09:55;;;;;;;31.40;21.10;;;10.70;99.90;;;;;;5060116;28;20437;-78
2023/04/09 06:12:21;;;;;;;34.08;20.52;;;10.70;99.90;;;;;;5076087;28;20114;-78
2023/04/09 06:14:48;;;;;;;32.63;20.95;;;10.60;99.90;;;;;;5075841;28;20118;-78
2023/04/09 06:17:13;;;;;;;30.83;20.95;;;10.60;99.90;;;;;;5076585;28;20024;-78
2023/04/09 06:19:39;;;;;;;36.97;22.67;;;10.60;99.90;;;;;;5075869;28;20521;-78
2023/04/09 06:22:05;;;;;;;32.60;21.92;;;10.60;99.90;;;;;;5075650;28;20028;-78
2023/04/09 06:24:33;;;;;;;32.05;21.00;;;10.60;99.90;;;;;;5059091;28;20130;-78
2023/04/09 06:26:59;;;;;;;33.40;22.08;;;10.60;99.90;;;;;;5094276;28;20050;-77
2023/04/09 06:29:26;;;;;;;38.30;23.33;;;10.60;99.90;;;;;;5058558;28;20028;-77
2023/04/09 06:31:51;;;;;;;37.63;23.00;;;10.60;99.90;;;;;;5094035;28;20106;-78
2023/04/09 06:34:17;;;;;;;35.80;22.35;;;10.60;99.90;;;;;;5093483;28;20421;-78
2023/04/09 06:36:43;;;;;;;33.97;22.02;;;10.60;99.90;;;;;;5093772;28;20031;-78
2023/04/09 06:39:09;;;;;;;35.65;22.83;;;10.70;99.90;;;;;;5094039;28;20491;-79
2023/04/09 06:41:35;;;;;;;34.13;22.42;;;10.80;99.90;;;;;;5093640;28;20032;-78
2023/04/09 06:44:00;;;;;;;34.72;22.48;;;10.90;99.90;;;;;;5059528;28;20048;-78
2023/04/09 06:46:26;;;;;;;36.88;23.35;;;11.00;99.90;;;;;;5058524;28;20565;-78
2023/04/09 06:48:52;;;;;;;37.13;23.30;;;10.90;99.90;;;;;;5093299;28;20036;-78
2023/04/09 06:51:18;;;;;;;37.35;22.58;;;10.90;99.90;;;;;;5059444;28;20151;-78
2023/04/09 06:53:46;;;;;;;38.83;23.90;;;10.90;99.90;;;;;;5058615;28;20528;-78
2023/04/09 06:56:12;;;;;;;37.78;24.17;;;11.00;99.90;;;;;;5075402;28;20032;-78
2023/04/09 06:58:38;;;;;;;34.95;22.90;;;11.00;99.90;;;;;;5093184;28;20031;-79
2023/04/09 07:01:04;;;;;;;39.58;23.20;;;11.00;99.90;;;;;;5058636;28;20511;-79
2023/04/09 07:03:30;;;;;;;35.75;22.58;;;11.00;99.90;;;;;;5059096;28;20024;-78
2023/04/09 07:05:56;;;;;;;39.05;23.70;;;11.10;99.90;;;;;;5093419;28;20039;-78
2023/04/09 07:08:22;;;;;;;41.10;24.98;;;11.10;99.90;;;;;;5075310;28;20507;-79
2023/04/09 07:10:48;;;;;;;39.33;24.00;;;11.20;99.90;;;;;;5075388;28;20036;-79
2023/04/09 07:13:14;;;;;;;37.78;24.20;;;11.20;99.90;;;;;;5075523;28;20031;-78
2023/04/09 07:15:39;;;;;;;38.85;23.98;;;11.10;99.90;;;;;;5075322;28;20032;-78
2023/04/09 07:18:05;;;;;;;40.70;24.20;;;11.10;99.90;;;;;;5075857;28;20032;-78
2023/04/09 07:20:33;;;;;;;36.95;23.77;;;11.20;99.90;;;;;;5075011;28;20030;-78
2023/04/09 07:22:58;;;;;;;39.38;24.40;;;11.20;99.90;;;;;;5093307;28;20033;-78
2023/04/09 07:25:25;;;;;;;40.15;25.08;;;11.30;99.90;;;;;;5058797;28;20031;-78
2023/04/09 07:27:51;;;;;;;38.45;24.73;;;11.30;99.90;;;;;;5093541;28;20028;-78
2023/04/09 07:30:16;;;;;;;35.10;23.50;;;11.40;99.90;;;;;;5092924;28;20098;-78
2023/04/09 07:32:42;;;;;;;38.13;24.98;;;11.50;99.90;;;;;;5075054;28;20031;-78
2023/04/09 07:35:11;;;;;;;37.47;23.88;;;11.60;99.90;;;;;;5075222;28;20060;-79
2023/04/09 07:37:37;;;;;;;37.22;24.58;;;11.70;99.80;;;;;;5059288;28;20035;-78
2023/04/09 07:40:02;;;;;;;33.10;22.33;;;11.70;99.80;;;;;;5059115;28;20119;-78
2023/04/09 07:42:29;;;;;;;35.13;23.10;;;11.80;99.50;;;;;;5061043;28;20035;-78
2023/04/09 07:44:55;;;;;;;40.50;24.25;;;12.00;99.00;;;;;;5078354;28;20483;-79
2023/04/09 07:47:22;;;;;;;34.92;22.75;;;12.10;99.10;;;;;;5079070;28;20438;-78
2023/04/09 07:49:48;;;;;;;35.13;23.20;;;12.10;99.20;;;;;;5096283;28;20032;-78
2023/04/09 07:52:14;;;;;;;35.20;22.48;;;12.30;99.20;;;;;;5096571;28;20103;-78
2023/04/09 07:54:40;;;;;;;35.60;23.88;;;12.40;98.70;;;;;;5078568;28;20039;-78
2023/04/09 07:57:05;;;;;;;35.72;23.58;;;12.50;98.60;;;;;;5078790;28;20024;-77
2023/04/09 07:59:33;;;;;;;35.08;23.00;;;12.50;98.60;;;;;;5078800;28;20372;-78
2023/04/09 08:01:59;;;;;;;35.05;23.33;;;12.50;98.20;;;;;;5095961;28;20472;-78
2023/04/09 08:04:25;;;;;;;33.53;22.73;;;12.50;98.00;;;;;;5078237;28;20122;-78
2023/04/09 08:06:52;;;;;;;31.90;22.50;;;12.70;98.10;;;;;;5096661;28;20025;-78
2023/04/09 08:09:20;;;;;;;31.65;21.42;;;12.80;97.90;;;;;;5045029;28;20024;-78
2023/04/09 08:11:47;;;;;;;31.25;22.35;;;12.80;97.20;;;;;;5077827;28;20039;-77
2023/04/09 08:14:14;;;;;;;32.15;22.05;;;13.00;97.40;;;;;;5078073;28;20426;-78
2023/04/09 08:16:44;;;;;;;34.33;21.60;;;13.10;96.90;;;;;;5077586;28;20062;-78
2023/04/09 08:19:11;;;;;;;28.83;19.90;;;13.20;96.50;;;;;;5096148;28;20030;-78
2023/04/09 08:21:37;;;;;;;27.55;19.27;;;13.30;96.70;;;;;;5077722;28;20032;-78
2023/04/09 08:24:04;;;;;;;31.30;20.63;;;13.40;95.90;;;;;;5078055;28;20460;-78
2023/04/09 08:26:30;;;;;;;27.98;20.70;;;13.60;95.60;;;;;;5095950;28;20056;-77
2023/04/09 08:28:56;;;;;;;28.80;19.23;;;13.80;96.30;;;;;;5096206;28;20028;-78
2023/04/09 08:31:22;;;;;;;28.38;19.67;;;13.90;95.60;;;;;;5077808;28;20028;-78
2023/04/09 08:33:48;;;;;;;26.58;17.73;;;14.00;94.70;;;;;;5096125;28;20077;-78
2023/04/09 08:36:14;;;;;;;26.58;18.10;;;14.10;94.10;;;;;;5077773;28;20103;-78
2023/04/09 08:38:40;;;;;;;26.50;18.83;;;14.30;93.20;;;;;;5095980;28;20024;-77
2023/04/09 08:41:06;;;;;;;21.85;16.52;;;14.30;92.30;;;;;;5078300;28;20457;-77
2023/04/09 08:43:33;;;;;;;24.85;17.75;;;14.40;92.30;;;;;;5061068;28;20036;-78
2023/04/09 08:46:01;;;;;;;24.27;17.52;;;14.50;92.10;;;;;;5044563;28;20497;-78
2023/04/09 08:48:28;;;;;;;25.90;18.17;;;14.60;90.90;;;;;;5095117;28;20048;-78
2023/04/09 08:50:54;;;;;;;26.15;17.48;;;14.60;91.50;;;;;;5061501;28;20089;-78
2023/04/09 08:53:23;;;;;;;25.13;17.00;;;14.70;90.70;;;;;;5060587;28;20024;-78
2023/04/09 08:55:48;;;;;;;23.45;16.83;;;14.70;90.50;;;;;;5077018;28;20028;-77
2023/04/09 08:58:17;;;;;;;23.17;16.35;;;14.70;89.80;;;;;;5077325;28;20031;-77
2023/04/09 09:00:43;;;;;;;21.88;15.05;;;14.80;88.30;;;;;;5060625;28;20031;-78
2023/04/09 09:03:13;;;;;;;23.92;16.13;;;14.90;89.60;;;;;;5077323;28;20456;-77
2023/04/09 09:05:44;;;;;;;22.05;15.80;;;15.00;87.30;;;;;;5077024;28;20028;-78
2023/04/09 09:08:13;;;;;;;20.48;14.32;;;15.10;86.20;;;;;;5095464;28;20460;-78
2023/04/09 09:10:42;;;;;;;18.75;14.02;;;15.10;84.90;;;;;;5077664;28;20020;-78
2023/04/09 09:13:27;;;;;;;21.08;14.93;;;15.30;85.50;;;;;;5076856;28;20023;-78
2023/04/09 09:16:10;;;;;;;22.08;15.73;;;15.50;85.80;;;;;;5095027;28;20043;-78
2023/04/09 09:18:39;;;;;;;;;;;15.60;85.70;;;;;;5077789;28;20030;-78
2023/04/09 09:21:16;;;;;;;23.60;16.40;;;15.70;83.60;;;;;;5077115;28;19919;-78
2023/04/09 09:23:43;;;;;;;22.05;16.30;;;15.70;83.70;;;;;;5076478;28;20368;-78
2023/04/09 09:26:15;;;;;;;21.60;14.88;;;15.80;82.60;;;;;;5094814;28;20032;-78
2023/04/09 09:28:41;;;;;;;19.52;14.73;;;15.80;82.90;;;;;;5061047;28;20031;-78
2023/04/09 09:31:11;;;;;;;21.92;15.10;;;15.90;80.70;;;;;;5059931;28;20043;-77
2023/04/09 09:33:37;;;;;;;21.25;15.48;;;15.90;81.60;;;;;;5076638;28;20020;-78
2023/04/09 09:36:03;;;;;;;22.40;15.07;;;16.00;81.00;;;;;;5094280;28;20024;-75
2023/04/09 09:38:30;;;;;;;20.67;15.32;;;16.10;79.90;;;;;;5076887;28;20035;-75
2023/04/09 09:40:56;;;;;;;21.92;15.55;;;16.20;78.90;;;;;;5076824;28;20452;-75
2023/04/09 09:43:21;;;;;;;21.00;15.18;;;16.30;80.40;;;;;;5094470;28;20031;-75
2023/04/09 09:45:48;;;;;;;21.58;14.60;;;16.30;78.60;;;;;;5093874;28;20051;-76
2023/04/09 09:48:14;;;;;;;17.77;13.02;;;16.30;78.30;;;;;;5076055;28;20060;-76
2023/04/09 09:50:41;;;;;;;19.65;13.90;;;16.40;77.90;;;;;;5094330;28;20028;-76
2023/04/09 09:53:11;;;;;;;19.25;14.05;;;16.60;77.20;;;;;;5059528;28;20035;-75
2023/04/09 09:55:42;;;;;;;18.42;13.95;;;16.70;76.40;;;;;;5076104;28;20097;-75
2023/04/09 09:58:32;;;;;;;19.00;14.88;;;16.70;74.60;;;;;;5094232;28;20039;-77
2023/04/09 10:00:59;;;;;;;19.52;14.13;;;16.70;75.30;;;;;;5094449;28;20035;-75
2023/04/09 10:03:28;;;;;;;18.17;13.52;;;16.70;75.30;;;;;;5059112;28;20063;-76
2023/04/09 10:05:55;;;;;;;20.88;15.38;;;16.80;75.70;;;;;;5076532;28;20024;-75
2023/04/09 10:08:22;;;;;;;17.50;13.43;;;16.80;75.70;;;;;;5075845;28;20464;-76
2023/04/09 10:10:50;;;;;;;21.15;15.20;;;16.80;74.00;;;;;;5075919;28;20119;-75
2023/04/09 10:13:31;;;;;;;19.65;15.27;;;16.80;74.40;;;;;;5076149;28;20047;-74
2023/04/09 10:15:57;;;;;;;21.55;15.13;;;16.90;77.00;;;;;;5093968;28;20495;-76
2023/04/09 10:18:23;;;;;;;22.67;15.77;;;17.00;72.60;;;;;;5076226;28;20032;-76
2023/04/09 10:21:04;;;;;;;17.77;13.30;;;16.90;74.10;;;;;;5075542;28;20028;-76
2023/04/09 10:23:40;;;;;;;20.25;14.20;;;16.80;72.80;;;;;;5076522;28;20479;-75
2023/04/09 10:26:06;;;;;;;18.50;13.27;;;17.00;73.10;;;;;;5075629;28;20024;-77
2023/04/09 10:28:32;;;;;;;19.20;14.05;;;17.00;72.40;;;;;;5075604;28;20035;-75
2023/04/09 10:30:58;;;;;;;16.17;12.43;;;17.30;72.60;;;;;;5075324;28;20024;-75
2023/04/09 10:33:25;;;;;;;18.15;12.95;;;17.40;72.10;;;;;;5042508;28;20403;-76
2023/04/09 10:35:52;;;;;;;15.73;12.25;;;17.50;69.50;;;;;;5075989;28;20337;-76
2023/04/09 10:38:33;;;;;;;17.38;12.77;;;17.70;70.50;;;;;;5093707;28;20030;-75
2023/04/09 10:41:21;;;;;;;17.90;12.88;;;17.90;69.60;;;;;;5075636;28;20068;-75
2023/04/09 10:43:47;;;;;;;16.48;12.13;;;17.90;66.60;;;;;;5093620;28;20063;-75
2023/04/09 10:46:32;;;;;;;15.25;11.75;;;17.80;67.30;;;;;;5075437;28;20580;-75
2023/04/09 10:49:16;;;;;;;12.70;10.13;;;18.00;69.00;;;;;;5093918;28;20033;-75
2023/04/09 10:51:47;;;;;;;12.77;9.00;;;18.10;67.70;;;;;;5076013;28;20028;-76
2023/04/09 10:54:35;;;;;;;12.52;9.15;;;18.20;67.40;;;;;;5093676;28;20078;-77
2023/04/09 10:57:06;;;;;;;9.85;7.95;;;18.40;65.00;;;;;;5075289;28;20028;-76
2023/04/09 10:59:53;;;;;;;9.55;7.45;;;18.40;64.20;;;;;;5093483;28;20109;-76
2023/04/09 11:02:44;;;;;;;10.50;8.60;;;18.60;63.10;;;;;;5093460;28;20035;-76
2023/04/09 11:05:28;;;;;;;11.05;7.93;;;18.70;60.50;;;;;;5093708;28;20325;-77
2023/04/09 11:07:57;;;;;;;9.15;6.97;;;18.60;61.00;;;;;;5093130;28;20031;-76
2023/04/09 11:10:22;;;;;;;9.88;7.32;;;18.60;60.30;;;;;;5093312;28;20452;-76
2023/04/09 11:12:48;;;;;;;9.25;6.90;;;18.60;60.20;;;;;;5058643;28;20062;-77
2023/04/09 11:15:18;;;;;;;8.48;6.88;;;18.60;60.70;;;;;;5058567;28;20025;-76
2023/04/09 11:17:48;;;;;;;8.82;6.50;;;18.60;60.70;;;;;;5078529;28;20120;-77
2023/04/09 11:20:19;;;;;;;9.88;7.30;;;18.60;61.30;;;;;;5078978;28;20028;-76
2023/04/09 11:22:45;;;;;;;10.20;7.10;;;18.70;60.30;;;;;;5096916;28;20067;-75
2023/04/09 11:25:27;;;;;;;9.57;7.22;;;18.70;59.90;;;;;;5062752;28;20051;-76
2023/04/09 11:27:53;;;;;;;9.25;7.53;;;18.80;59.50;;;;;;5062896;28;20028;-76
2023/04/09 11:30:19;;;;;;;10.98;8.13;;;18.90;59.10;;;;;;5062878;28;20032;-76
2023/04/09 11:32:46;;;;;;;10.27;7.85;;;19.00;58.80;;;;;;5097331;28;20042;-77
2023/04/09 11:35:19;;;;;;;8.27;6.63;;;19.10;58.50;;;;;;5078397;28;20161;-77
2023/04/09 11:37:45;;;;;;;10.15;7.68;;;19.10;58.00;;;;;;5079132;28;20047;-77
2023/04/09 11:40:24;;;;;;;7.65;6.00;;;19.20;56.90;;;;;;5078853;28;20032;-77
2023/04/09 11:42:52;;;;;;;7.97;6.00;;;19.30;57.30;;;;;;5096927;28;20040;-75
2023/04/09 11:45:20;;;;;;;9.15;7.35;;;19.40;56.60;;;;;;5078648;28;20056;-76
2023/04/09 11:47:46;;;;;;;8.68;5.95;;;19.50;55.10;;;;;;5078560;28;20036;-77
2023/04/09 11:50:13;;;;;;;9.02;5.30;;;19.50;55.80;;;;;;5078908;28;20032;-76
2023/04/09 11:52:40;;;;;;;7.20;4.88;;;19.60;54.60;;;;;;5078850;28;20037;-77
2023/04/09 11:55:09;;;;;;;5.85;4.78;;;19.60;53.90;;;;;;5078535;28;20133;-76
2023/04/09 11:57:37;;;;;;;8.00;5.55;;;19.70;53.60;;;;;;5096626;28;20020;-76
2023/04/09 12:00:14;;;;;;;7.15;5.72;;;19.80;53.70;;;;;;5078794;28;20034;-77
2023/04/09 12:02:43;;;;;;;6.40;5.32;;;19.80;53.20;;;;;;5096689;28;20028;-77
2023/04/09 12:05:12;;;;;;;7.93;5.35;;;19.80;52.50;;;;;;5061882;28;20024;-77
2023/04/09 12:07:39;;;;;;;6.55;5.05;;;19.70;52.50;;;;;;5096598;28;20024;-77
2023/04/09 12:10:09;;;;;;;6.78;4.60;;;19.70;53.40;;;;;;5078348;28;20039;-76
2023/04/09 12:12:46;;;;;;;8.38;5.70;;;19.80;53.50;;;;;;5096323;28;20032;-76
2023/04/09 12:15:19;;;;;;;7.47;6.15;;;19.90;53.20;;;;;;5077855;28;20093;-76
2023/04/09 12:17:50;;;;;;;7.20;5.95;;;19.90;52.20;;;;;;5096385;28;20033;-77
2023/04/09 12:20:38;;;;;;;8.50;6.18;;;19.90;53.40;;;;;;5078214;28;20436;-76
2023/04/09 12:23:05;;;;;;;8.90;5.95;;;20.00;54.10;;;;;;5096144;28;20495;-76
2023/04/09 12:25:34;;;;;;;6.63;5.60;;;20.10;54.10;;;;;;5078229;28;20101;-77
2023/04/09 12:28:00;;;;;;;8.50;6.43;;;20.10;52.50;;;;;;5061594;28;20035;-76
2023/04/09 12:30:26;;;;;;;9.38;7.25;;;20.10;51.80;;;;;;5096226;28;20492;-76
2023/04/09 12:32:53;;;;;;;8.98;6.63;;;20.20;52.60;;;;;;5096163;28;20028;-77
2023/04/09 12:35:19;;;;;;;10.18;8.32;;;20.30;52.40;;;;;;5078188;28;20478;-77